sensor_id;sensor_type;location;lat;lon;timestamp;pressure;altitude;pressure_sealevel;temperature;humidity
49723;BME280;43484;43.608;1.458;2024-02-15T00:00:54;99982.97;;;12.14;100.00
49723;BME280;43484;43.608;1.458;2024-02-15T00:03:20;99995.13;;;12.21;100.00
49723;BME280;43484;43.608;1.458;2024-02-15T00:05:48;99982.13;;;12.15;100.00
49723;BME280;43484;43.608;1.458;2024-02-15T00:08:15;99965.31;;;12.27;100.00
49723;BME280;43484;43.608;1.458;2024-02-15T00:10:42;99965.25;;;12.24;100.00
49723;BME280;43484;43.608;1.458;2024-02-15T00:13:08;99971.16;;;12.20;100.00
49723;BME280;43484;43.608;1.458;2024-02-15T00:15:35;99980.69;;;12.26;100.00
49723;BME280;43484;43.608;1.458;2024-02-15T00:18:03;99979.03;;;12.28;100.00
49723;BME280;43484;43.608;1.458;2024-02-15T00:20:31;99978.13;;;12.26;100.00
49723;BME280;43484;43.608;1.458;2024-02-15T00:23:00;99974.59;;;12.22;100.00
49723;BME280;43484;43.608;1.458;2024-02-15T00:25:27;99986.78;;;12.29;100.00
49723;BME280;43484;43.608;1.458;2024-02-15T00:27:53;99982.41;;;12.25;100.00
49723;BME280;43484;43.608;1.458;2024-02-15T00:30:20;99983.25;;;12.26;100.00
49723;BME280;43484;43.608;1.458;2024-02-15T00:32:48;99970.94;;;12.13;100.00
49723;BME280;43484;43.608;1.458;2024-02-15T00:35:15;99962.31;;;12.11;100.00
49723;BME280;43484;43.608;1.458;2024-02-15T00:37:42;99957.81;;;12.02;100.00
49723;BME280;43484;43.608;1.458;2024-02-15T00:40:09;99951.91;;;12.05;100.00
49723;BME280;43484;43.608;1.458;2024-02-15T00:42:36;99945.78;;;12.00;100.00
49723;BME280;43484;43.608;1.458;2024-02-15T00:45:04;99933.81;;;11.99;100.00
49723;BME280;43484;43.608;1.458;2024-02-15T00:47:31;99925.31;;;12.03;100.00
49723;BME280;43484;43.608;1.458;2024-02-15T00:49:59;99913.50;;;12.09;100.00
49723;BME280;43484;43.608;1.458;2024-02-15T00:52:26;99935.84;;;12.12;100.00
49723;BME280;43484;43.608;1.458;2024-02-15T00:54:53;99923.75;;;12.08;100.00
49723;BME280;43484;43.608;1.458;2024-02-15T00:57:19;99918.53;;;12.05;100.00
49723;BME280;43484;43.608;1.458;2024-02-15T00:59:46;99916.91;;;12.08;100.00
49723;BME280;43484;43.608;1.458;2024-02-15T01:02:13;99922.75;;;12.03;100.00
49723;BME280;43484;43.608;1.458;2024-02-15T01:04:39;99927.75;;;11.97;100.00
49723;BME280;43484;43.608;1.458;2024-02-15T01:07:06;99920.06;;;11.97;100.00
49723;BME280;43484;43.608;1.458;2024-02-15T01:09:35;99895.72;;;11.83;100.00
49723;BME280;43484;43.608;1.458;2024-02-15T01:12:01;99887.88;;;11.77;100.00
49723;BME280;43484;43.608;1.458;2024-02-15T01:14:30;99864.78;;;11.77;100.00
49723;BME280;43484;43.608;1.458;2024-02-15T01:16:57;99863.19;;;11.82;100.00
49723;BME280;43484;43.608;1.458;2024-02-15T01:19:24;99862.34;;;11.83;100.00
49723;BME280;43484;43.608;1.458;2024-02-15T01:21:50;99850.38;;;11.82;100.00
49723;BME280;43484;43.608;1.458;2024-02-15T01:24:17;99840.13;;;11.83;100.00
49723;BME280;43484;43.608;1.458;2024-02-15T01:26:43;99828.94;;;11.80;100.00
49723;BME280;43484;43.608;1.458;2024-02-15T01:29:10;99822.16;;;11.83;100.00
49723;BME280;43484;43.608;1.458;2024-02-15T01:31:38;99813.66;;;11.86;100.00
49723;BME280;43484;43.608;1.458;2024-02-15T01:34:05;99806.94;;;11.91;100.00
49723;BME280;43484;43.608;1.458;2024-02-15T01:36:32;99791.47;;;11.88;100.00
49723;BME280;43484;43.608;1.458;2024-02-15T01:38:58;99758.16;;;11.91;100.00
49723;BME280;43484;43.608;1.458;2024-02-15T01:41:25;99750.50;;;11.92;100.00
49723;BME280;43484;43.608;1.458;2024-02-15T01:43:52;99747.06;;;11.90;100.00
49723;BME280;43484;43.608;1.458;2024-02-15T01:46:19;99745.16;;;11.83;100.00
49723;BME280;43484;43.608;1.458;2024-02-15T01:48:47;99725.50;;;11.84;100.00
49723;BME280;43484;43.608;1.458;2024-02-15T01:51:15;99704.13;;;11.85;100.00
49723;BME280;43484;43.608;1.458;2024-02-15T01:53:42;99698.16;;;11.86;100.00
49723;BME280;43484;43.608;1.458;2024-02-15T01:56:12;99690.47;;;11.86;100.00
49723;BME280;43484;43.608;1.458;2024-02-15T01:58:40;99686.16;;;11.85;100.00
49723;BME280;43484;43.608;1.458;2024-02-15T02:01:08;99687.16;;;11.91;100.00
49723;BME280;43484;43.608;1.458;2024-02-15T02:03:35;99681.09;;;11.88;100.00
49723;BME280;43484;43.608;1.458;2024-02-15T02:06:02;99669.06;;;11.84;100.00
49723;BME280;43484;43.608;1.458;2024-02-15T02:08:30;99662.94;;;11.79;100.00
49723;BME280;43484;43.608;1.458;2024-02-15T02:10:56;99651.94;;;11.84;100.00
49723;BME280;43484;43.608;1.458;2024-02-15T02:13:23;99639.91;;;11.82;100.00
49723;BME280;43484;43.608;1.458;2024-02-15T02:15:50;99623.72;;;11.86;100.00
49723;BME280;43484;43.608;1.458;2024-02-15T02:18:17;99623.75;;;11.87;100.00
49723;BME280;43484;43.608;1.458;2024-02-15T02:20:44;99627.94;;;11.82;100.00
49723;BME280;43484;43.608;1.458;2024-02-15T02:23:16;99628.84;;;11.86;100.00
49723;BME280;43484;43.608;1.458;2024-02-15T02:25:45;99621.06;;;11.81;100.00
49723;BME280;43484;43.608;1.458;2024-02-15T02:28:15;99620.22;;;11.82;100.00
49723;BME280;43484;43.608;1.458;2024-02-15T02:30:43;99626.88;;;11.73;100.00
49723;BME280;43484;43.608;1.458;2024-02-15T02:33:13;99642.34;;;11.76;100.00
49723;BME280;43484;43.608;1.458;2024-02-15T02:35:48;99658.81;;;11.85;100.00
49723;BME280;43484;43.608;1.458;2024-02-15T02:38:15;99677.59;;;11.84;100.00
49723;BME280;43484;43.608;1.458;2024-02-15T02:40:42;99675.00;;;11.83;100.00
49723;BME280;43484;43.608;1.458;2024-02-15T02:43:09;99674.19;;;11.84;100.00
49723;BME280;43484;43.608;1.458;2024-02-15T02:45:36;99676.78;;;11.85;100.00
49723;BME280;43484;43.608;1.458;2024-02-15T02:48:03;99705.00;;;11.85;100.00
49723;BME280;43484;43.608;1.458;2024-02-15T02:50:30;99710.88;;;11.80;100.00
49723;BME280;43484;43.608;1.458;2024-02-15T02:52:56;99713.34;;;11.75;100.00
49723;BME280;43484;43.608;1.458;2024-02-15T02:55:23;99706.47;;;11.76;100.00
49723;BME280;43484;43.608;1.458;2024-02-15T02:57:50;99697.84;;;11.72;100.00
49723;BME280;43484;43.608;1.458;2024-02-15T03:00:17;99697.03;;;11.73;100.00
49723;BME280;43484;43.608;1.458;2024-02-15T03:02:44;99694.47;;;11.73;100.00
49723;BME280;43484;43.608;1.458;2024-02-15T03:05:12;99665.38;;;11.73;100.00
49723;BME280;43484;43.608;1.458;2024-02-15T03:07:42;99635.28;;;11.67;100.00
49723;BME280;43484;43.608;1.458;2024-02-15T03:10:09;99598.47;;;11.64;100.00
49723;BME280;43484;43.608;1.458;2024-02-15T03:12:39;99569.34;;;11.63;100.00
49723;BME280;43484;43.608;1.458;2024-02-15T03:15:07;99535.00;;;11.57;100.00
49723;BME280;43484;43.608;1.458;2024-02-15T03:17:39;99506.75;;;11.55;100.00
49723;BME280;43484;43.608;1.458;2024-02-15T03:20:07;99488.81;;;11.55;100.00
49723;BME280;43484;43.608;1.458;2024-02-15T03:22:57;99467.47;;;11.58;100.00
49723;BME280;43484;43.608;1.458;2024-02-15T03:25:25;99454.53;;;11.52;100.00
49723;BME280;43484;43.608;1.458;2024-02-15T03:27:53;99423.72;;;11.50;100.00
49723;BME280;43484;43.608;1.458;2024-02-15T03:30:24;99451.06;;;11.50;100.00
49723;BME280;43484;43.608;1.458;2024-02-15T03:32:51;99472.50;;;11.53;100.00
49723;BME280;43484;43.608;1.458;2024-02-15T03:35:20;99456.28;;;11.56;100.00
49723;BME280;43484;43.608;1.458;2024-02-15T03:37:49;99427.13;;;11.51;100.00
49723;BME280;43484;43.608;1.458;2024-02-15T03:40:20;99424.59;;;11.52;100.00
49723;BME280;43484;43.608;1.458;2024-02-15T03:42:47;99436.59;;;11.53;100.00
49723;BME280;43484;43.608;1.458;2024-02-15T03:45:14;99431.34;;;11.47;100.00
49723;BME280;43484;43.608;1.458;2024-02-15T03:47:41;99436.63;;;11.55;100.00
49723;BME280;43484;43.608;1.458;2024-02-15T03:50:08;99440.78;;;11.48;100.00
49723;BME280;43484;43.608;1.458;2024-02-15T03:52:41;99436.56;;;11.52;100.00
49723;BME280;43484;43.608;1.458;2024-02-15T03:55:08;99427.94;;;11.48;100.00
49723;BME280;43484;43.608;1.458;2024-02-15T03:57:38;99436.59;;;11.53;100.00
49723;BME280;43484;43.608;1.458;2024-02-15T04:00:08;99428.88;;;11.52;100.00
49723;BME280;43484;43.608;1.458;2024-02-15T04:02:37;99447.72;;;11.54;100.00
49723;BME280;43484;43.608;1.458;2024-02-15T04:05:08;99459.75;;;11.56;100.00
49723;BME280;43484;43.608;1.458;2024-02-15T04:07:35;99481.09;;;11.55;100.00
49723;BME280;43484;43.608;1.458;2024-02-15T04:10:04;99509.28;;;11.54;100.00
49723;BME280;43484;43.608;1.458;2024-02-15T04:12:32;99522.88;;;11.50;100.00
49723;BME280;43484;43.608;1.458;2024-02-15T04:14:58;99517.84;;;11.54;100.00
49723;BME280;43484;43.608;1.458;2024-02-15T04:17:39;99502.56;;;11.59;100.00
49723;BME280;43484;43.608;1.458;2024-02-15T04:20:07;99488.84;;;11.58;100.00
49723;BME280;43484;43.608;1.458;2024-02-15T04:22:35;99487.97;;;11.58;100.00
49723;BME280;43484;43.608;1.458;2024-02-15T04:25:05;99489.94;;;11.69;100.00
49723;BME280;43484;43.608;1.458;2024-02-15T04:27:33;99456.47;;;11.63;100.00
49723;BME280;43484;43.608;1.458;2024-02-15T04:29:59;99439.31;;;11.62;100.00
49723;BME280;43484;43.608;1.458;2024-02-15T04:32:26;99432.59;;;11.67;100.00
49723;BME280;43484;43.608;1.458;2024-02-15T04:34:55;99419.84;;;11.69;100.00
49723;BME280;43484;43.608;1.458;2024-02-15T04:37:22;99419.94;;;11.75;100.00
49723;BME280;43484;43.608;1.458;2024-02-15T04:39:49;99404.56;;;11.76;100.00
49723;BME280;43484;43.608;1.458;2024-02-15T04:42:16;99405.31;;;11.71;100.00
49723;BME280;43484;43.608;1.458;2024-02-15T04:44:44;99410.47;;;11.72;100.00
49723;BME280;43484;43.608;1.458;2024-02-15T04:47:11;99397.59;;;11.71;100.00
49723;BME280;43484;43.608;1.458;2024-02-15T04:49:38;99389.84;;;11.66;100.00
49723;BME280;43484;43.608;1.458;2024-02-15T04:52:05;99365.06;;;11.67;100.00
49723;BME280;43484;43.608;1.458;2024-02-15T04:54:33;99350.38;;;11.61;100.00
49723;BME280;43484;43.608;1.458;2024-02-15T04:57:00;99349.47;;;11.59;100.00
49723;BME280;43484;43.608;1.458;2024-02-15T04:59:27;99333.09;;;11.51;100.00
49723;BME280;43484;43.608;1.458;2024-02-15T05:01:56;99317.75;;;11.54;100.00
49723;BME280;43484;43.608;1.458;2024-02-15T05:04:22;99301.44;;;11.51;100.00
49723;BME280;43484;43.608;1.458;2024-02-15T05:06:51;99290.38;;;11.52;100.00
49723;BME280;43484;43.608;1.458;2024-02-15T05:09:19;99297.88;;;11.43;100.00
49723;BME280;43484;43.608;1.458;2024-02-15T05:11:46;99271.50;;;11.48;100.00
49723;BME280;43484;43.608;1.458;2024-02-15T05:14:15;99251.63;;;11.36;100.00
49723;BME280;43484;43.608;1.458;2024-02-15T05:16:46;99244.88;;;11.42;100.00
49723;BME280;43484;43.608;1.458;2024-02-15T05:19:18;99244.03;;;11.43;100.00
49723;BME280;43484;43.608;1.458;2024-02-15T05:21:46;99237.22;;;11.45;100.00
49723;BME280;43484;43.608;1.458;2024-02-15T05:24:13;99240.69;;;11.47;100.00
49723;BME280;43484;43.608;1.458;2024-02-15T05:26:44;99241.53;;;11.47;100.00
49723;BME280;43484;43.608;1.458;2024-02-15T05:29:13;99228.69;;;11.46;100.00
49723;BME280;43484;43.608;1.458;2024-02-15T05:31:40;99223.69;;;11.52;100.00
49723;BME280;43484;43.608;1.458;2024-02-15T05:34:07;99216.81;;;11.51;100.00
49723;BME280;43484;43.608;1.458;2024-02-15T05:36:35;99228.75;;;11.49;100.00
49723;BME280;43484;43.608;1.458;2024-02-15T05:39:02;99233.03;;;11.50;100.00
49723;BME280;43484;43.608;1.458;2024-02-15T05:41:29;99227.09;;;11.52;100.00
49723;BME280;43484;43.608;1.458;2024-02-15T05:43:56;99236.53;;;11.55;100.00
49723;BME280;43484;43.608;1.458;2024-02-15T05:46:24;99241.75;;;11.61;100.00
49723;BME280;43484;43.608;1.458;2024-02-15T05:48:51;99267.41;;;11.61;100.00
49723;BME280;43484;43.608;1.458;2024-02-15T05:51:18;99266.59;;;11.62;100.00
49723;BME280;43484;43.608;1.458;2024-02-15T05:53:45;99282.16;;;11.71;100.00
49723;BME280;43484;43.608;1.458;2024-02-15T05:56:12;99289.69;;;11.62;100.00
49723;BME280;43484;43.608;1.458;2024-02-15T05:58:40;99306.97;;;11.70;100.00
49723;BME280;43484;43.608;1.458;2024-02-15T06:01:06;99306.19;;;11.76;100.00
49723;BME280;43484;43.608;1.458;2024-02-15T06:03:34;99277.88;;;11.70;100.00
49723;BME280;43484;43.608;1.458;2024-02-15T06:06:05;99253.16;;;11.76;100.00
49723;BME280;43484;43.608;1.458;2024-02-15T06:08:36;99248.00;;;11.75;100.00
49723;BME280;43484;43.608;1.458;2024-02-15T06:11:03;99240.31;;;11.75;100.00
49723;BME280;43484;43.608;1.458;2024-02-15T06:13:31;99234.34;;;11.77;100.00
49723;BME280;43484;43.608;1.458;2024-02-15T06:15:58;99226.69;;;11.79;100.00
49723;BME280;43484;43.608;1.458;2024-02-15T06:18:28;99223.22;;;11.75;100.00
49723;BME280;43484;43.608;1.458;2024-02-15T06:20:56;99230.09;;;11.79;100.00
49723;BME280;43484;43.608;1.458;2024-02-15T06:23:26;99224.09;;;11.77;100.00
49723;BME280;43484;43.608;1.458;2024-02-15T06:25:56;99207.69;;;11.68;100.00
49723;BME280;43484;43.608;1.458;2024-02-15T06:28:25;99224.94;;;11.76;100.00
49723;BME280;43484;43.608;1.458;2024-02-15T06:31:11;99230.06;;;11.76;100.00
49723;BME280;43484;43.608;1.458;2024-02-15T06:33:56;99238.63;;;11.77;100.00
49723;BME280;43484;43.608;1.458;2024-02-15T06:36:49;99252.22;;;11.71;100.00
49723;BME280;43484;43.608;1.458;2024-02-15T06:39:35;99265.97;;;11.75;100.00
49723;BME280;43484;43.608;1.458;2024-02-15T06:42:09;99268.53;;;11.75;100.00
49723;BME280;43484;43.608;1.458;2024-02-15T06:44:43;99265.22;;;11.80;100.00
49723;BME280;43484;43.608;1.458;2024-02-15T06:47:11;99259.34;;;11.89;100.00
49723;BME280;43484;43.608;1.458;2024-02-15T06:49:39;99266.16;;;11.87;100.00
49723;BME280;43484;43.608;1.458;2024-02-15T06:52:10;99255.94;;;11.90;100.00
49723;BME280;43484;43.608;1.458;2024-02-15T06:54:41;99245.63;;;11.87;100.00
49723;BME280;43484;43.608;1.458;2024-02-15T06:57:09;99234.50;;;11.86;100.00
49723;BME280;43484;43.608;1.458;2024-02-15T06:59:36;99238.81;;;11.89;100.00
49723;BME280;43484;43.608;1.458;2024-02-15T07:02:04;99236.13;;;11.81;100.00
49723;BME280;43484;43.608;1.458;2024-02-15T07:04:35;99226.75;;;11.83;100.00
49723;BME280;43484;43.608;1.458;2024-02-15T07:07:03;99237.78;;;11.78;100.00
49723;BME280;43484;43.608;1.458;2024-02-15T07:09:31;99238.66;;;11.78;100.00
49723;BME280;43484;43.608;1.458;2024-02-15T07:11:59;99253.34;;;11.88;100.00
49723;BME280;43484;43.608;1.458;2024-02-15T07:14:27;99250.78;;;11.88;100.00
49723;BME280;43484;43.608;1.458;2024-02-15T07:16:55;99230.31;;;11.94;100.00
49723;BME280;43484;43.608;1.458;2024-02-15T07:19:25;99238.03;;;11.94;100.00
49723;BME280;43484;43.608;1.458;2024-02-15T07:21:54;99242.41;;;12.00;100.00
49723;BME280;43484;43.608;1.458;2024-02-15T07:24:23;99249.25;;;12.01;100.00
49723;BME280;43484;43.608;1.458;2024-02-15T07:26:53;99246.75;;;12.04;100.00
49723;BME280;43484;43.608;1.458;2024-02-15T07:29:22;99243.28;;;12.00;100.00
49723;BME280;43484;43.608;1.458;2024-02-15T07:31:52;99241.59;;;12.04;100.00
49723;BME280;43484;43.608;1.458;2024-02-15T07:34:18;99250.28;;;12.13;100.00
49723;BME280;43484;43.608;1.458;2024-02-15T07:36:46;99246.06;;;12.17;100.00
49723;BME280;43484;43.608;1.458;2024-02-15T07:39:13;99240.94;;;12.18;100.00
49723;BME280;43484;43.608;1.458;2024-02-15T07:41:56;99257.22;;;12.19;100.00
49723;BME280;43484;43.608;1.458;2024-02-15T07:44:24;99253.78;;;12.17;100.00
49723;BME280;43484;43.608;1.458;2024-02-15T07:46:51;99254.72;;;12.25;100.00
49723;BME280;43484;43.608;1.458;2024-02-15T07:49:18;99259.09;;;12.32;100.00
49723;BME280;43484;43.608;1.458;2024-02-15T07:51:45;99253.16;;;12.36;100.00
49723;BME280;43484;43.608;1.458;2024-02-15T07:54:19;99249.75;;;12.37;100.00
49723;BME280;43484;43.608;1.458;2024-02-15T07:56:49;99250.69;;;12.43;100.00
49723;BME280;43484;43.608;1.458;2024-02-15T07:59:16;99245.56;;;12.43;100.00
49723;BME280;43484;43.608;1.458;2024-02-15T08:01:43;99247.28;;;12.46;100.00
49723;BME280;43484;43.608;1.458;2024-02-15T08:04:12;99249.97;;;12.55;100.00
49723;BME280;43484;43.608;1.458;2024-02-15T08:06:43;99250.97;;;12.68;100.00
49723;BME280;43484;43.608;1.458;2024-02-15T08:09:10;99263.03;;;12.72;100.00
49723;BME280;43484;43.608;1.458;2024-02-15T08:11:40;99263.06;;;12.75;100.00
49723;BME280;43484;43.608;1.458;2024-02-15T08:14:07;99268.28;;;12.82;100.00
49723;BME280;43484;43.608;1.458;2024-02-15T08:16:39;99260.59;;;12.84;100.00
49723;BME280;43484;43.608;1.458;2024-02-15T08:19:07;99238.38;;;12.89;100.00
49723;BME280;43484;43.608;1.458;2024-02-15T08:21:34;99229.88;;;12.94;100.00
49723;BME280;43484;43.608;1.458;2024-02-15T08:24:03;99220.47;;;12.98;100.00
49723;BME280;43484;43.608;1.458;2024-02-15T08:26:38;99219.69;;;13.03;100.00
49723;BME280;43484;43.608;1.458;2024-02-15T08:29:06;99233.41;;;13.04;100.00
49723;BME280;43484;43.608;1.458;2024-02-15T08:31:33;99240.28;;;13.06;100.00
49723;BME280;43484;43.608;1.458;2024-02-15T08:34:03;99255.81;;;13.15;100.00
49723;BME280;43484;43.608;1.458;2024-02-15T08:36:33;99258.38;;;13.15;100.00
49723;BME280;43484;43.608;1.458;2024-02-15T08:39:00;99273.91;;;13.23;100.00
49723;BME280;43484;43.608;1.458;2024-02-15T08:41:27;99267.03;;;13.23;100.00
49723;BME280;43484;43.608;1.458;2024-02-15T08:43:54;99257.63;;;13.25;100.00
49723;BME280;43484;43.608;1.458;2024-02-15T08:46:23;99255.06;;;13.27;100.00
49723;BME280;43484;43.608;1.458;2024-02-15T08:48:51;99248.22;;;13.27;100.00
49723;BME280;43484;43.608;1.458;2024-02-15T08:51:18;99248.19;;;13.23;100.00
49723;BME280;43484;43.608;1.458;2024-02-15T08:53:50;99228.53;;;13.31;100.00
49723;BME280;43484;43.608;1.458;2024-02-15T08:56:17;99219.97;;;13.35;100.00
49723;BME280;43484;43.608;1.458;2024-02-15T08:58:44;99201.97;;;13.33;100.00
49723;BME280;43484;43.608;1.458;2024-02-15T09:01:10;99219.06;;;13.27;100.00
49723;BME280;43484;43.608;1.458;2024-02-15T09:03:39;99221.72;;;13.34;100.00
49723;BME280;43484;43.608;1.458;2024-02-15T09:06:06;99219.16;;;13.37;100.00
49723;BME280;43484;43.608;1.458;2024-02-15T09:08:34;99231.25;;;13.46;100.00
49723;BME280;43484;43.608;1.458;2024-02-15T09:11:01;99236.50;;;13.58;100.00
49723;BME280;43484;43.608;1.458;2024-02-15T09:13:31;99232.19;;;13.61;100.00
49723;BME280;43484;43.608;1.458;2024-02-15T09:16:00;99241.69;;;13.67;100.00
49723;BME280;43484;43.608;1.458;2024-02-15T09:18:27;99230.63;;;13.78;100.00
49723;BME280;43484;43.608;1.458;2024-02-15T09:20:53;99240.97;;;13.84;100.00
49723;BME280;43484;43.608;1.458;2024-02-15T09:23:22;99249.63;;;13.96;100.00
49723;BME280;43484;43.608;1.458;2024-02-15T09:25:50;99258.25;;;14.02;100.00
49723;BME280;43484;43.608;1.458;2024-02-15T09:28:18;99272.88;;;14.08;100.00
49723;BME280;43484;43.608;1.458;2024-02-15T09:30:51;99280.69;;;14.21;100.00
49723;BME280;43484;43.608;1.458;2024-02-15T09:33:21;99298.78;;;14.27;100.00
49723;BME280;43484;43.608;1.458;2024-02-15T09:35:48;99301.38;;;14.30;100.00
49723;BME280;43484;43.608;1.458;2024-02-15T09:38:14;99301.44;;;14.35;100.00
49723;BME280;43484;43.608;1.458;2024-02-15T09:40:48;99314.19;;;14.20;100.00
49723;BME280;43484;43.608;1.458;2024-02-15T09:43:15;99319.41;;;14.32;100.00
49723;BME280;43484;43.608;1.458;2024-02-15T09:45:42;99323.78;;;14.40;100.00
49723;BME280;43484;43.608;1.458;2024-02-15T09:48:10;99327.22;;;14.39;100.00
49723;BME280;43484;43.608;1.458;2024-02-15T09:50:41;99323.81;;;14.43;100.00
49723;BME280;43484;43.608;1.458;2024-02-15T09:53:09;99316.94;;;14.45;100.00
49723;BME280;43484;43.608;1.458;2024-02-15T09:55:39;99315.22;;;14.41;100.00
49723;BME280;43484;43.608;1.458;2024-02-15T09:58:08;99324.66;;;14.44;100.00
49723;BME280;43484;43.608;1.458;2024-02-15T10:00:36;99320.44;;;14.58;100.00
49723;BME280;43484;43.608;1.458;2024-02-15T10:03:05;99329.06;;;14.63;100.00
49723;BME280;43484;43.608;1.458;2024-02-15T10:05:33;99331.66;;;14.67;100.00
49723;BME280;43484;43.608;1.458;2024-02-15T10:08:00;99329.97;;;14.77;100.00
49723;BME280;43484;43.608;1.458;2024-02-15T10:10:27;99356.63;;;14.80;100.00
49723;BME280;43484;43.608;1.458;2024-02-15T10:12:55;99355.88;;;14.93;100.00
49723;BME280;43484;43.608;1.458;2024-02-15T10:18:01;99373.94;;;15.04;100.00
49723;BME280;43484;43.608;1.458;2024-02-15T10:20:28;99375.66;;;15.00;100.00
49723;BME280;43484;43.608;1.458;2024-02-15T10:25:26;99386.88;;;15.08;100.00
49723;BME280;43484;43.608;1.458;2024-02-15T10:28:11;99390.34;;;15.14;100.00
49723;BME280;43484;43.608;1.458;2024-02-15T10:30:40;99414.47;;;15.25;100.00
49723;BME280;43484;43.608;1.458;2024-02-15T10:33:19;99420.50;;;15.28;100.00
49723;BME280;43484;43.608;1.458;2024-02-15T10:35:49;99428.25;;;15.33;100.00
49723;BME280;43484;43.608;1.458;2024-02-15T10:38:15;99446.34;;;15.39;100.00
49723;BME280;43484;43.608;1.458;2024-02-15T10:40:46;99432.63;;;15.41;100.00
49723;BME280;43484;43.608;1.458;2024-02-15T10:43:15;99429.19;;;15.44;100.00
49723;BME280;43484;43.608;1.458;2024-02-15T10:45:42;99440.38;;;15.46;100.00
49723;BME280;43484;43.608;1.458;2024-02-15T10:48:12;99423.16;;;15.42;100.00
49723;BME280;43484;43.608;1.458;2024-02-15T10:50:40;99418.88;;;15.42;100.00
49723;BME280;43484;43.608;1.458;2024-02-15T10:53:21;99417.13;;;15.41;100.00
49723;BME280;43484;43.608;1.458;2024-02-15T10:58:33;99419.66;;;15.37;100.00
49723;BME280;43484;43.608;1.458;2024-02-15T11:01:06;99407.59;;;15.33;100.00
49723;BME280;43484;43.608;1.458;2024-02-15T11:03:36;99411.09;;;15.41;100.00
49723;BME280;43484;43.608;1.458;2024-02-15T11:06:04;99415.44;;;15.51;100.00
49723;BME280;43484;43.608;1.458;2024-02-15T11:08:34;99426.66;;;15.66;100.00
49723;BME280;43484;43.608;1.458;2024-02-15T11:11:01;99440.44;;;15.70;100.00
49723;BME280;43484;43.608;1.458;2024-02-15T11:13:31;99467.13;;;15.66;100.00
49723;BME280;43484;43.608;1.458;2024-02-15T11:15:58;99462.81;;;15.69;100.00
49723;BME280;43484;43.608;1.458;2024-02-15T11:18:47;99456.81;;;15.70;100.00
49723;BME280;43484;43.608;1.458;2024-02-15T11:21:54;99450.78;;;15.62;100.00
49723;BME280;43484;43.608;1.458;2024-02-15T11:24:27;99445.63;;;15.71;100.00
49723;BME280;43484;43.608;1.458;2024-02-15T11:27:01;99442.19;;;15.72;100.00
49723;BME280;43484;43.608;1.458;2024-02-15T11:29:59;99440.47;;;15.74;100.00
49723;BME280;43484;43.608;1.458;2024-02-15T11:32:48;99437.88;;;15.65;100.00
49723;BME280;43484;43.608;1.458;2024-02-15T11:35:22;99434.44;;;15.77;100.00
49723;BME280;43484;43.608;1.458;2024-02-15T11:40:29;99424.97;;;15.76;100.00
49723;BME280;43484;43.608;1.458;2024-02-15T11:46:18;99408.59;;;15.68;100.00
49723;BME280;43484;43.608;1.458;2024-02-15T11:48:49;99408.59;;;15.62;100.00
49723;BME280;43484;43.608;1.458;2024-02-15T11:54:06;99387.09;;;15.70;100.00
49723;BME280;43484;43.608;1.458;2024-02-15T11:56:57;99393.13;;;15.74;100.00
49723;BME280;43484;43.608;1.458;2024-02-15T11:59:42;99390.56;;;15.72;100.00
49723;BME280;43484;43.608;1.458;2024-02-15T12:02:20;99395.72;;;15.72;100.00
49723;BME280;43484;43.608;1.458;2024-02-15T12:05:07;99396.56;;;15.76;100.00
49723;BME280;43484;43.608;1.458;2024-02-15T12:08:00;99389.69;;;15.67;100.00
49723;BME280;43484;43.608;1.458;2024-02-15T12:10:57;99399.13;;;15.74;100.00
49723;BME280;43484;43.608;1.458;2024-02-15T12:13:42;99385.38;;;15.78;100.00
49723;BME280;43484;43.608;1.458;2024-02-15T12:16:27;99393.16;;;15.87;100.00
49723;BME280;43484;43.608;1.458;2024-02-15T12:19:12;99389.69;;;15.75;100.00
49723;BME280;43484;43.608;1.458;2024-02-15T12:21:39;99385.38;;;15.75;100.00
49723;BME280;43484;43.608;1.458;2024-02-15T12:24:07;99385.34;;;15.71;100.00
49723;BME280;43484;43.608;1.458;2024-02-15T12:26:34;99386.25;;;15.86;100.00
49723;BME280;43484;43.608;1.458;2024-02-15T12:29:01;99372.47;;;15.81;100.00
49723;BME280;43484;43.608;1.458;2024-02-15T12:31:28;99367.31;;;15.78;100.00
49723;BME280;43484;43.608;1.458;2024-02-15T12:34:05;99379.34;;;15.76;100.00
49723;BME280;43484;43.608;1.458;2024-02-15T12:36:35;99383.63;;;15.58;100.00
49723;BME280;43484;43.608;1.458;2024-02-15T12:39:06;99364.69;;;15.66;100.00
49723;BME280;43484;43.608;1.458;2024-02-15T12:41:50;99362.13;;;15.66;100.00
49723;BME280;43484;43.608;1.458;2024-02-15T12:44:18;99365.53;;;15.61;100.00
49723;BME280;43484;43.608;1.458;2024-02-15T12:46:55;99359.56;;;15.78;100.00
49723;BME280;43484;43.608;1.458;2024-02-15T12:51:54;99353.53;;;15.91;100.00
49723;BME280;43484;43.608;1.458;2024-02-15T12:54:40;99326.81;;;15.89;100.00
49723;BME280;43484;43.608;1.458;2024-02-15T12:57:08;99334.59;;;15.83;100.00
49723;BME280;43484;43.608;1.458;2024-02-15T12:59:41;99334.56;;;15.71;100.00
49723;BME280;43484;43.608;1.458;2024-02-15T13:02:09;99340.59;;;15.75;100.00
49723;BME280;43484;43.608;1.458;2024-02-15T13:04:35;99332.03;;;15.77;100.00
49723;BME280;43484;43.608;1.458;2024-02-15T13:07:05;99328.56;;;15.75;100.00
49723;BME280;43484;43.608;1.458;2024-02-15T13:09:33;99331.13;;;15.81;100.00
49723;BME280;43484;43.608;1.458;2024-02-15T13:12:00;99317.38;;;15.85;100.00
49723;BME280;43484;43.608;1.458;2024-02-15T13:14:27;99317.38;;;15.73;100.00
49723;BME280;43484;43.608;1.458;2024-02-15T13:16:55;99315.66;;;15.78;100.00
49723;BME280;43484;43.608;1.458;2024-02-15T13:19:22;99314.78;;;15.87;100.00
49723;BME280;43484;43.608;1.458;2024-02-15T13:21:49;99325.13;;;15.88;100.00